Stations météo

réclame
Mon MeteoGroup
Fuengirola, Espagne (8480): Température de l'air & dewpoint: 17.05.2018 22:00:00 - 23.05.2018 22:00:00 (CEST)Fuengirola, Espagne (8480): Vitesse du vent & gusts: 17.05.2018 22:00:00 - 23.05.2018 22:00:00 (CEST)Fuengirola, Espagne (8480): Direction du vent: 17.05.2018 22:00:00 - 23.05.2018 22:00:00 (CEST)Fuengirola, Espagne (8480): Quantités de précipitations: 17.05.2018 22:00:00 - 23.05.2018 22:00:00 (CEST)
Date & Time tt [°C] td [°C] ff [km/h] ff [knt] fx [km/h] fx [knt] dd rr [mm]
23.05.2018 22:00:00 20,8 13,5 2 1 3 2 SW 0,0
23.05.2018 21:00:00 21,4 13,3 2 1 3 2 SE 0,0
23.05.2018 20:00:00 22,0 13,6 1 1 3 2 ESE -
23.05.2018 19:00:00 21,8 14,9 2 1 5 3 SSW 0,0
23.05.2018 18:00:00 22,5 15,1 3 2 8 4 ESE 0,0
23.05.2018 17:00:00 22,6 16,2 6 4 11 6 NE 0,0
23.05.2018 16:00:00 22,3 17,7 8 5 14 8 ESE 0,0
23.05.2018 15:00:00 22,5 17,4 7 4 13 7 E 0,0
23.05.2018 14:00:00 21,8 17,4 8 4 11 6 ENE -
23.05.2018 13:00:00 20,7 17,3 6 3 10 6 ESE 0,0
23.05.2018 12:00:00 19,6 17,0 3 2 13 7 S 0,0
23.05.2018 11:00:00 18,9 16,0 8 4 11 6 NE 0,0
23.05.2018 10:00:00 19,2 15,5 1 1 8 4 SW 0,0
23.05.2018 09:00:00 18,4 14,5 6 3 12 7 NW 0,0
23.05.2018 08:00:00 17,2 13,9 4 2 11 6 NW -
23.05.2018 07:00:00 16,9 13,8 4 2 9 5 WNW 0,0
23.05.2018 06:00:00 17,0 13,9 3 2 10 6 NNW 0,0
23.05.2018 05:00:00 17,1 14,7 3 2 5 3 WNW 0,0
23.05.2018 04:00:00 18,0 16,2 3 1 5 3 SE 0,0
23.05.2018 03:00:00 17,7 14,6 3 1 8 4 NNW 0,0
23.05.2018 02:00:00 18,4 15,6 2 1 6 3 WNW -
23.05.2018 01:00:00 18,6 16,0 3 1 6 4 NNW 0,0
23.05.2018 00:00:00 19,7 16,9 4 2 9 5 ENE 0,0
22.05.2018 23:00:00 19,9 16,5 2 1 11 6 WSW 0,0
22.05.2018 22:00:00 19,6 17,4 3 2 15 8 SW 0,0
22.05.2018 21:00:00 19,6 17,7 1 1 19 11 NNW 0,0
22.05.2018 20:00:00 19,5 18,2 10 5 20 11 SSW -
22.05.2018 19:00:00 19,6 17,6 13 7 19 10 SSW 0,0
22.05.2018 18:00:00 19,7 17,8 13 7 22 12 SSW 0,0
22.05.2018 17:00:00 19,2 17,7 16 9 23 12 SSW 0,0
22.05.2018 16:00:00 19,1 17,6 15 8 23 12 SSW 0,0
22.05.2018 15:00:00 19,2 16,6 14 8 20 11 SSW 0,0
22.05.2018 14:00:00 19,4 16,6 13 7 19 10 SSW -
22.05.2018 13:00:00 18,1 17,0 14 7 19 10 SSW 0,0
22.05.2018 12:00:00 18,0 17,2 12 6 18 10 SSW 0,0
22.05.2018 11:00:00 17,8 17,0 11 6 17 9 SSW 0,0
22.05.2018 10:00:00 18,5 17,2 6 4 10 5 SSW 0,0
22.05.2018 09:00:00 17,2 14,8 1 1 4 2 SE 0,0
22.05.2018 08:00:00 17,0 14,5 2 1 8 4 SW -
22.05.2018 07:00:00 16,5 14,2 1 0 12 7 WNW 0,0
22.05.2018 06:00:00 16,7 14,3 1 0 14 8 W 0,0
22.05.2018 05:00:00 17,0 14,6 1 1 12 7 NW 0,0
22.05.2018 04:00:00 17,3 14,9 4 2 10 5 WNW 0,0
22.05.2018 03:00:00 17,5 15,1 4 2 8 5 NW 0,0
22.05.2018 02:00:00 18,4 16,2 0 0 9 5 NNW -
22.05.2018 01:00:00 18,4 16,6 2 1 10 6 W 0,0
22.05.2018 00:00:00 18,8 17,1 2 1 13 7 W 0,0
21.05.2018 23:00:00 19,2 16,8 2 1 9 5 WSW 0,0
21.05.2018 22:00:00 19,7 16,9 3 1 14 8 SW 0,0
21.05.2018 21:00:00 19,7 16,3 4 2 18 10 W 0,0
21.05.2018 20:00:00 19,9 16,5 4 2 17 9 WSW -
21.05.2018 19:00:00 19,5 16,0 6 3 15 8 SW 0,0
21.05.2018 18:00:00 19,5 18,2 6 4 22 12 SSE 0,0
21.05.2018 17:00:00 18,7 17,5 15 8 24 13 SSW 0,0
21.05.2018 16:00:00 18,9 17,2 16 9 23 13 SSW 0,0
21.05.2018 15:00:00 18,6 17,8 18 10 24 13 SSW 0,0
21.05.2018 14:00:00 18,4 17,8 12 7 18 10 SSW -
21.05.2018 13:00:00 18,3 17,7 8 5 12 6 SSW 0,0
21.05.2018 12:00:00 18,3 17,5 5 3 10 5 S 0,0
21.05.2018 11:00:00 18,0 16,7 6 4 10 5 S 0,0
21.05.2018 10:00:00 17,9 16,2 4 2 5 3 S 0,0
21.05.2018 09:00:00 17,5 15,7 0 0 6 3 W 0,0
21.05.2018 08:00:00 16,9 15,1 4 2 8 4 W -
21.05.2018 07:00:00 16,6 14,8 5 3 10 5 WNW 0,0
21.05.2018 06:00:00 16,7 14,9 3 1 9 5 NW 0,0
21.05.2018 05:00:00 16,7 14,9 1 1 5 3 WNW 0,0
21.05.2018 04:00:00 16,8 15,0 3 1 9 5 NW 0,0
21.05.2018 03:00:00 17,3 15,3 3 2 6 3 NNW 0,0
21.05.2018 02:00:00 17,6 15,6 2 1 10 5 W -
21.05.2018 01:00:00 18,0 16,2 4 2 9 5 W 0,0
21.05.2018 00:00:00 18,3 16,5 4 2 10 5 W 0,0
20.05.2018 23:00:00 18,7 17,2 2 1 4 2 SW 0,0
20.05.2018 22:00:00 18,7 17,0 2 1 6 3 SSE 0,0
20.05.2018 21:00:00 18,9 17,0 4 2 11 6 E 0,0
20.05.2018 20:00:00 19,4 17,2 6 3 8 4 SE -
20.05.2018 19:00:00 19,6 17,4 3 2 7 4 SE 0,0
20.05.2018 18:00:00 19,5 17,3 4 2 9 5 SE 0,0
20.05.2018 17:00:00 19,1 17,4 9 5 14 7 S 0,0
20.05.2018 16:00:00 19,5 17,8 8 5 11 6 S 0,0
20.05.2018 15:00:00 19,2 17,5 6 3 10 6 S 0,0
20.05.2018 14:00:00 18,9 17,4 7 4 14 8 S -
20.05.2018 13:00:00 18,9 17,6 10 5 14 8 SSW 0,0
20.05.2018 12:00:00 18,3 17,0 10 5 15 8 SSW 0,0
20.05.2018 11:00:00 18,6 16,8 8 4 11 6 SSE 0,0
20.05.2018 10:00:00 18,2 15,8 6 3 8 4 S 0,0
20.05.2018 09:00:00 17,6 15,2 2 1 8 4 W 0,0
20.05.2018 08:00:00 17,1 14,9 4 2 7 4 W -
20.05.2018 07:00:00 17,3 15,5 2 1 6 3 WNW 0,0
20.05.2018 06:00:00 17,8 16,1 2 1 7 4 WSW 0,0
20.05.2018 05:00:00 18,0 16,3 3 2 9 5 WSW 0,0
20.05.2018 04:00:00 18,3 15,7 3 2 9 5 WSW 0,0
20.05.2018 03:00:00 17,9 15,5 1 1 6 4 W 0,0
20.05.2018 02:00:00 18,1 16,8 1 0 4 2 ESE -
20.05.2018 01:00:00 18,5 17,0 3 2 6 4 ESE 0,0
20.05.2018 00:00:00 18,9 17,0 3 2 6 3 ESE 0,0
19.05.2018 23:00:00 18,9 16,5 3 1 5 3 SSE 0,0
19.05.2018 22:00:00 18,9 16,0 1 0 5 3 E 0,0
19.05.2018 21:00:00 19,1 15,8 4 2 8 4 ENE 0,0
19.05.2018 20:00:00 19,4 16,4 5 3 7 4 E -
19.05.2018 19:00:00 20,5 17,1 3 2 7 4 SE 0,0
19.05.2018 18:00:00 20,6 17,2 5 3 10 6 SE 0,0
19.05.2018 17:00:00 20,9 17,7 8 4 13 7 ESE 0,0
19.05.2018 16:00:00 20,3 17,5 6 4 10 6 ESE 0,0
19.05.2018 15:00:00 19,9 17,1 6 3 9 5 SSE 0,0
19.05.2018 14:00:00 20,1 17,7 8 4 13 7 SE -
19.05.2018 13:00:00 20,0 17,8 9 5 15 8 ESE 0,0
19.05.2018 12:00:00 19,3 17,1 11 6 16 9 SE 0,0
19.05.2018 11:00:00 18,7 16,9 9 5 12 7 SE 0,0
19.05.2018 10:00:00 17,9 15,7 5 3 7 4 S 0,0
19.05.2018 09:00:00 17,3 14,4 3 2 6 4 W 0,0
19.05.2018 08:00:00 16,5 13,4 3 2 7 4 NW -
19.05.2018 07:00:00 16,4 13,3 5 3 9 5 NW 0,0
19.05.2018 06:00:00 16,5 13,4 4 2 9 5 NW 0,0
19.05.2018 05:00:00 16,5 13,4 5 3 13 7 WNW 0,0
19.05.2018 04:00:00 16,7 13,8 4 2 8 5 WNW 0,0
19.05.2018 03:00:00 16,9 14,4 4 2 8 5 WNW 0,0
19.05.2018 02:00:00 17,5 15,0 1 1 5 3 NNE -
19.05.2018 01:00:00 17,5 15,0 1 1 6 3 W 0,0
19.05.2018 00:00:00 17,9 15,7 6 3 10 5 SE 0,0
18.05.2018 23:00:00 18,5 15,7 8 5 11 6 ESE 0,0
18.05.2018 22:00:00 18,6 15,5 9 5 12 7 E 0,0
18.05.2018 21:00:00 19,5 16,2 7 4 13 7 E 0,0
18.05.2018 20:00:00 20,5 16,7 10 5 18 10 E -
18.05.2018 19:00:00 20,4 16,8 10 6 16 9 E 0,0
18.05.2018 18:00:00 21,1 17,5 8 5 13 7 E 0,0
18.05.2018 17:00:00 21,0 17,6 6 4 15 8 E 0,0
18.05.2018 16:00:00 20,7 17,3 11 6 14 7 ESE 0,0
18.05.2018 15:00:00 20,5 17,3 8 5 12 6 ESE 0,0
18.05.2018 14:00:00 20,2 17,2 7 4 10 6 ESE -
18.05.2018 13:00:00 19,8 17,0 7 4 13 7 ESE 0,0
18.05.2018 12:00:00 19,4 16,6 9 5 13 7 SE 0,0
18.05.2018 11:00:00 18,9 16,5 5 3 9 5 E 0,0
18.05.2018 10:00:00 18,3 15,6 4 2 7 4 ESE 0,0
18.05.2018 09:00:00 17,7 15,0 3 1 6 4 E 0,0
18.05.2018 08:00:00 16,8 14,3 5 3 8 5 NW -
18.05.2018 07:00:00 16,8 14,3 2 1 7 4 WNW 0,0
18.05.2018 06:00:00 17,0 13,9 1 1 5 3 NNW 0,0
18.05.2018 05:00:00 16,9 14,7 1 1 6 3 N 0,0
18.05.2018 04:00:00 17,3 15,1 2 1 9 5 ENE 0,0
18.05.2018 03:00:00 17,7 15,5 6 3 14 8 ENE 0,0
18.05.2018 02:00:00 17,9 16,1 9 5 14 8 ENE -
18.05.2018 01:00:00 17,9 15,7 11 6 16 9 E 0,0
18.05.2018 00:00:00 18,1 15,9 9 5 16 8 E 0,0
17.05.2018 23:00:00 17,8 15,8 7 4 13 7 ENE 0,0
17.05.2018 22:00:00 18,1 15,9 8 4 22 12 ENE 0,0

tt = Température de l'air
td = dewpoint
ff = Vitesse du vent
fx = gusts
dd = Direction du vent
rr = Quantités de précipitations

stations d'obs. à proximité